Latest Weather Observations for Proserpine

IDQ60801

Issued at 4:02 pm EST Wednesday 31 August 2016 (issued every 30 minutes, with the page automatically refreshed every 10 minutes)

About weather observations | Map of weather stations | Latest weather observations for QLD | Other Formats
Station Details ID: 033247 Name: PROSERPINE AIRPORT Lat: -20.49 Lon: 148.56 Height: 19.7 m
Data from the previous 72 hours. | See also: Recent months at Proserpine
Date/Time
EST
Temp
°C
App
Temp
°C
Dew
Point
°C
Rel
Hum
%
Delta-T
°C
Wind Press
QNH
hPa
Press
MSL
hPa
Rain since
9am
mm
Dir  Spd
km/h
Gust
km/h
Spd
kts
Gust
kts
31/03:30pm 24.2 21.9 16.7 63 4.6 ESE 24 32 13 17 1019.0 1018.9 0.0
31/03:00pm 25.0 22.6 16.4 59 5.3 ESE 24 33 13 18 1019.3 1019.2 0.0
31/02:30pm 25.1 23.4 17.1 61 5.0 ESE 22 30 12 16 1019.7 1019.6 0.0
31/02:00pm 24.4 21.9 16.1 60 5.0 ESE 24 33 13 18 1020.1 1020.0 0.0
31/01:30pm 25.1 22.7 16.3 58 5.4 ESE 24 33 13 18 1020.5 1020.4 0.0
31/01:00pm 25.1 22.3 16.3 58 5.4 ESE 26 37 14 20 1020.8 1020.7 0.0
31/12:30pm 25.2 22.4 17.4 62 4.9 ESE 28 41 15 22 1021.1 1021.0 0.0
31/12:00pm 25.6 23.6 17.5 61 5.1 ESE 24 35 13 19 1021.5 1021.4 0.0
31/11:30am 24.6 22.4 16.8 62 4.8 ESE 24 33 13 18 1022.0 1021.9 0.0
31/11:00am 24.9 22.9 17.4 63 4.7 ESE 24 33 13 18 1022.5 1022.4 0.0
31/10:30am 24.6 23.3 18.1 67 4.1 ESE 22 32 12 17 1022.6 1022.5 0.0
31/10:00am 25.0 24.2 18.4 66 4.2 ESE 20 32 11 17 1022.8 1022.7 0.0
31/09:30am 24.1 22.8 18.1 69 3.8 ESE 22 30 12 16 1023.0 1022.9 0.0
31/09:00am 22.3 21.5 17.9 76 2.7 ESE 19 28 10 15 1023.2 1023.1 2.6
31/08:51am 22.1 21.8 18.3 79 2.4 SE 17 24 9 13 1023.2 1023.1 2.6
31/08:37am 21.9 22.8 18.5 81 2.1 SE 11 19 6 10 1023.4 1023.3 2.6
31/08:30am 21.7 22.4 17.9 79 2.4 SE 11 15 6 8 1023.3 1023.2 2.6
31/08:00am 21.1 22.4 18.5 85 1.6 SSE 9 15 5 8 1023.0 1022.9 2.6
31/07:30am 19.3 21.2 17.6 90 1.0 SSW 4 7 2 4 1022.9 1022.8 2.6
31/07:00am 18.8 19.6 17.3 91 0.9 SW 9 11 5 6 1022.6 1022.5 2.6
31/06:30am 18.7 19.1 17.2 91 0.9 SSE 11 15 6 8 1022.5 1022.4 2.6
31/06:00am 18.1 19.2 16.6 91 0.9 S 6 7 3 4 1022.3 1022.2 2.6
31/05:30am 19.0 19.8 17.3 90 1.0 SSE 9 13 5 7 1022.0 1021.9 2.6
31/05:00am 18.6 19.4 17.3 92 0.8 SSE 9 11 5 6 1021.6 1021.5 2.6
31/04:30am 18.8 20.2 17.3 91 0.9 E 6 7 3 4 1021.4 1021.3 2.6
31/04:00am 19.0 20.1 17.1 89 1.1 S 7 9 4 5 1021.4 1021.3 2.6
31/03:30am 19.0 20.4 17.3 90 1.0 E 6 9 3 5 1021.6 1021.5 2.6
31/03:00am 19.0 19.7 17.0 88 1.2 S 9 13 5 7 1021.6 1021.5 2.6
31/02:30am 18.7 19.0 16.9 89 1.1 S 11 13 6 7 1022.0 1021.9 2.6
31/02:00am 18.7 19.6 16.7 88 1.2 SSE 7 9 4 5 1022.3 1022.2 2.6
31/01:30am 19.0 19.6 16.8 87 1.3 S 9 11 5 6 1022.5 1022.4 2.6
31/01:00am 19.0 19.3 17.0 88 1.2 S 11 13 6 7 1022.7 1022.6 2.6
31/12:30am 19.7 20.0 17.1 85 1.6 S 11 15 6 8 1023.1 1023.0 2.6
31/12:00am 19.7 20.1 17.3 86 1.5 S 11 15 6 8 1023.5 1023.4 2.6
 
Date/Time
EST
Temp
°C
App
Temp
°C
Dew
Point
°C
Rel
Hum
%
Delta-T
°C
Wind Press
QNH
hPa
Press
MSL
hPa
Rain since
9am
mm
Dir  Spd
km/h
Gust
km/h
Spd
kts
Gust
kts
30/11:30pm 19.5 20.1 16.9 85 1.6 S 9 13 5 7 1023.6 1023.5 2.6
30/11:00pm 20.3 20.3 17.3 83 1.8 SSE 13 17 7 9 1023.5 1023.4 2.6
30/10:30pm 20.1 20.9 17.3 84 1.7 SSE 9 13 5 7 1023.5 1023.4 2.6
30/10:00pm 20.2 20.0 17.6 85 1.6 SE 15 22 8 12 1023.6 1023.5 2.6
30/09:30pm 20.2 20.3 17.4 84 1.7 SSE 13 19 7 10 1023.6 1023.5 2.6
30/09:00pm 20.5 20.8 17.9 85 1.6 ESE 13 22 7 12 1023.8 1023.7 2.6
30/08:30pm 20.8 20.8 18.0 84 1.7 ESE 15 20 8 11 1023.7 1023.6 2.6
30/08:00pm 20.6 21.3 18.0 85 1.6 ESE 11 15 6 8 1023.6 1023.5 2.6
30/07:30pm 20.4 21.0 17.8 85 1.6 ESE 11 13 6 7 1023.2 1023.1 2.6
30/07:00pm 20.4 20.6 17.6 84 1.7 ESE 13 17 7 9 1022.8 1022.7 2.6
30/06:30pm 20.3 20.3 17.3 83 1.8 SE 13 19 7 10 1022.6 1022.5 2.6
30/06:00pm 20.9 20.5 17.1 79 2.3 SE 15 19 8 10 1022.3 1022.2 2.6
30/05:30pm 21.7 20.5 17.1 75 2.8 ESE 19 28 10 15 1022.0 1021.9 2.6
30/05:00pm 22.2 20.4 16.9 72 3.2 ESE 22 30 12 16 1021.8 1021.7 2.6
30/04:30pm 22.7 20.4 16.7 69 3.7 SE 24 32 13 17 1021.4 1021.3 2.6
30/04:00pm 23.1 20.6 18.0 73 3.2 SE 28 33 15 18 1021.1 1021.0 2.6
30/03:30pm 23.5 21.1 17.3 68 3.8 SE 26 35 14 19 1021.2 1021.1 2.6
30/03:00pm 23.5 21.5 17.3 68 3.8 ESE 24 35 13 19 1021.2 1021.1 2.6
30/02:30pm 24.6 22.8 17.8 66 4.3 ESE 24 35 13 19 1021.5 1021.4 2.6
30/02:00pm 23.6 22.2 18.7 74 3.1 SE 24 33 13 18 1021.9 1021.8 2.6
30/01:30pm 22.9 21.7 18.4 76 2.8 ESE 22 32 12 17 1022.2 1022.1 2.6
30/01:00pm 22.7 22.6 18.7 78 2.5 ESE 17 28 9 15 1022.6 1022.5 2.6
30/12:49pm 21.7 22.9 20.0 90 1.1 ESE 13 22 7 12 1022.8 1022.7 2.6
30/12:46pm 21.8 23.2 20.4 92 0.9 SE 13 22 7 12 1022.9 1022.8 2.6
30/12:39pm 20.7 21.7 19.5 93 0.8 ESE 13 22 7 12 1023.0 1022.9 2.6
30/12:36pm 20.2 20.6 18.9 92 0.8 ESE 15 22 8 12 1023.1 1023.0 2.6
30/12:30pm 19.9 19.4 18.6 92 0.8 ESE 19 30 10 16 1023.3 1023.2 2.6
30/12:19pm 20.4 19.2 18.3 88 1.3 E 22 30 12 16 1023.5 1023.4 2.0
30/12:15pm 20.9 19.6 18.1 84 1.7 ESE 22 32 12 17 1023.5 1023.4 2.0
30/12:00pm 23.0 20.5 17.2 70 3.6 ESE 26 35 14 19 1023.4 1023.3 2.0
30/11:30am 23.7 21.4 16.7 65 4.3 ESE 24 35 13 19 1023.5 1023.4 2.0
30/11:00am 22.6 21.5 18.6 78 2.5 ESE 22 35 12 19 1023.9 1023.8 2.0
30/10:30am 23.3 24.7 20.4 84 1.9 ESE 13 20 7 11 1024.1 1024.0 2.0
30/10:06am 21.3 22.8 19.0 87 1.5 ENE 9 15 5 8 1024.5 1024.4 2.0
30/10:00am 20.8 22.3 18.9 89 1.2 E 9 15 5 8 1024.6 1024.5 2.0
30/09:50am 20.5 21.5 18.6 89 1.2 E 11 17 6 9 1024.6 1024.5 2.0
30/09:31am 20.5 21.4 18.4 88 1.3 E 11 15 6 8 1024.5 1024.4 1.8
30/09:30am 20.5 21.6 18.8 90 1.1 E 11 15 6 8 1024.5 1024.4 1.8
30/09:09am 20.3 19.9 18.1 87 1.4 E 17 24 9 13 1024.5 1024.4 0.2
30/09:00am 20.6 20.0 17.6 83 1.8 SE 17 26 9 14 1024.2 1024.1 1.2
30/08:30am 20.3 21.5 18.2 88 1.3 S 9 13 5 7 1023.9 1023.8 1.2
30/08:00am 19.6 21.2 18.3 92 0.8 S 7 9 4 5 1023.4 1023.3 1.2
30/07:30am 18.8 19.7 17.6 93 0.7 S 9 13 5 7 1023.0 1022.9 1.2
30/07:00am 18.8 19.8 17.8 94 0.6 ESE 9 13 5 7 1022.7 1022.6 1.2
30/06:41am 18.6 20.1 17.6 94 0.6 E 6 9 3 5 1022.6 1022.5 1.2
30/06:30am 18.5 19.1 17.7 95 0.5 ESE 11 19 6 10 1022.5 1022.4 1.2
30/06:22am 18.3 18.4 17.5 95 0.5 SE 13 19 7 10 1022.4 1022.3 1.0
30/06:00am 17.6 18.5 16.1 91 0.9 SSE 6 7 3 4 1022.1 1022.0 0.4
30/05:30am 17.8 18.1 16.0 89 1.1 SE 9 11 5 6 1021.9 1021.8 0.4
30/05:00am 18.1 17.7 16.3 89 1.1 SE 13 19 7 10 1021.6 1021.5 0.4
30/04:30am 18.7 17.9 17.0 90 1.0 ESE 17 22 9 12 1021.3 1021.2 0.4
30/04:00am 18.3 18.2 16.1 87 1.3 S 11 15 6 8 1021.0 1020.9 0.0
30/03:30am 18.2 17.7 15.8 86 1.4 SSE 13 17 7 9 1020.9 1020.8 0.0
30/03:00am 18.2 18.0 15.8 86 1.4 SE 11 17 6 9 1021.1 1021.0 0.0
30/02:30am 18.3 18.1 15.7 85 1.5 SSE 11 17 6 9 1021.2 1021.1 0.0
30/02:00am 18.4 18.2 15.8 85 1.5 S 11 17 6 9 1021.4 1021.3 0.0
30/01:30am 18.2 18.0 15.8 86 1.4 SSE 11 17 6 9 1021.5 1021.4 0.0
30/01:00am 18.0 17.8 15.8 87 1.3 S 11 17 6 9 1021.8 1021.7 0.0
30/12:30am 18.3 18.2 15.9 86 1.4 SSE 11 13 6 7 1021.8 1021.7 0.0
30/12:00am 18.6 18.5 16.0 85 1.5 SSE 11 15 6 8 1021.9 1021.8 0.0
 
Date/Time
EST
Temp
°C
App
Temp
°C
Dew
Point
°C
Rel
Hum
%
Delta-T
°C
Wind Press
QNH
hPa
Press
MSL
hPa
Rain since
9am
mm
Dir  Spd
km/h
Gust
km/h
Spd
kts
Gust
kts
29/11:30pm 19.0 18.8 16.6 86 1.4 SSE 13 22 7 12 1021.9 1021.8 0.0
29/11:00pm 18.2 18.3 15.6 85 1.5 S 9 13 5 7 1022.2 1022.1 0.0
29/10:30pm 18.6 18.5 16.0 85 1.5 SSE 11 13 6 7 1022.1 1022.0 0.0
29/10:00pm 18.6 18.1 16.0 85 1.5 S 13 17 7 9 1022.3 1022.2 0.0
29/09:30pm 18.4 17.9 16.0 86 1.4 SSE 13 17 7 9 1022.6 1022.5 0.0
29/09:00pm 18.2 17.6 15.6 85 1.5 SSE 13 17 7 9 1022.4 1022.3 0.0
29/08:30pm 18.6 17.7 15.8 84 1.7 SSE 15 19 8 10 1022.6 1022.5 0.0
29/08:00pm 18.7 17.8 15.8 83 1.7 SE 15 19 8 10 1022.5 1022.4 0.0
29/07:30pm 19.4 18.2 16.1 81 2.0 SE 17 24 9 13 1022.3 1022.2 0.0
29/07:00pm 20.0 18.5 16.8 82 1.9 SE 20 26 11 14 1022.1 1022.0 0.0
29/06:30pm 20.1 18.6 16.7 81 2.1 ESE 20 28 11 15 1021.8 1021.7 0.0
29/06:00pm 20.3 18.6 16.3 78 2.4 ESE 20 32 11 17 1021.7 1021.6 0.0
29/05:30pm 21.0 18.5 16.2 74 2.9 ESE 24 35 13 19 1021.4 1021.3 0.0
29/05:00pm 21.7 19.1 15.8 69 3.5 ESE 24 33 13 18 1021.4 1021.3 0.0
29/04:30pm 22.1 19.4 15.5 66 3.9 ESE 24 33 13 18 1021.4 1021.3 0.0
29/04:00pm 23.2 20.0 14.2 57 5.3 ESE 24 32 13 17 1021.3 1021.2 0.0
29/03:30pm 23.6 20.3 14.0 55 5.6 ESE 24 33 13 18 1021.0 1020.9 0.0
29/03:00pm 23.9 20.1 13.7 53 5.9 SE 26 39 14 21 1021.0 1020.9 0.0
29/02:30pm 24.1 20.5 13.0 50 6.4 ESE 24 35 13 19 1020.8 1020.7 0.0
29/02:00pm 23.1 19.3 12.4 51 6.1 ESE 24 35 13 19 1021.1 1021.0 0.0
29/01:30pm 23.3 19.6 12.6 51 6.1 ESE 24 33 13 18 1021.3 1021.2 0.0
29/01:00pm 24.4 20.2 12.4 47 6.9 SE 26 33 14 18 1021.7 1021.6 0.0
29/12:30pm 24.8 20.6 13.4 49 6.7 SE 28 37 15 20 1022.0 1021.9 0.0
29/12:00pm 25.2 21.7 13.4 48 6.9 SE 24 35 13 19 1022.3 1022.2 0.0
29/11:30am 24.3 19.9 12.9 49 6.6 SE 28 35 15 19 1022.8 1022.7 0.0
29/11:00am 24.3 20.0 11.9 45 7.0 ESE 26 37 14 20 1023.1 1023.0 0.0
29/10:30am 23.9 20.0 13.4 51 6.1 ESE 26 35 14 19 1023.2 1023.1 0.0
29/10:00am 23.2 19.6 13.1 53 5.8 ESE 24 33 13 18 1023.3 1023.2 0.0
29/09:30am 23.0 21.5 14.3 58 5.1 E 15 24 8 13 1023.3 1023.2 0.0
29/09:00am 20.5 20.0 13.7 65 3.9 ESE 9 13 5 7 1023.4 1023.3 0.0
29/08:30am 18.7 19.7 14.4 76 2.5 SSE 2 7 1 4 1023.4 1023.3 0.0
29/08:00am 15.8 16.9 13.5 86 1.3 CALM 0 0 0 0 1023.2 1023.1 0.0
29/07:30am 13.9 14.8 13.0 94 0.5 CALM 0 0 0 0 1022.8 1022.7 0.0
29/07:00am 11.4 11.7 10.9 97 0.3 CALM 0 0 0 0 1022.4 1022.3 0.0
29/06:30am 9.6 9.3 8.8 95 0.4 CALM 0 6 0 3 1022.1 1022.0 0.0
29/06:00am 10.3 9.8 9.5 95 0.4 SSW 2 7 1 4 1021.7 1021.6 0.0
29/05:30am 10.3 9.8 9.4 94 0.4 S 2 7 1 4 1021.4 1021.3 0.0
29/05:00am 10.7 9.6 10.1 96 0.3 SW 6 7 3 4 1021.4 1021.3 0.0
29/04:30am 10.9 11.0 10.3 96 0.3 CALM 0 0 0 0 1021.4 1021.3 0.0
29/04:00am 10.7 9.6 9.9 95 0.4 SW 6 7 3 4 1021.2 1021.1 0.0
29/03:30am 10.7 9.6 9.9 95 0.4 W 6 7 3 4 1021.1 1021.0 0.0
29/03:00am 10.5 10.4 9.3 92 0.6 CALM 0 0 0 0 1021.1 1021.0 0.0
29/02:30am 11.0 10.3 9.9 93 0.6 SW 4 7 2 4 1021.3 1021.2 0.0
29/02:00am 11.0 9.9 9.8 92 0.6 SSW 6 9 3 5 1021.3 1021.2 0.0
29/01:30am 11.5 10.3 10.2 92 0.7 SW 7 11 4 6 1021.5 1021.4 0.0
29/01:00am 11.4 9.7 10.0 91 0.7 SSW 9 11 5 6 1021.8 1021.7 0.0
29/12:30am 11.7 9.4 10.3 91 0.7 SW 13 15 7 8 1022.0 1021.9 0.0
29/12:00am 11.6 9.3 10.3 92 0.7 SSW 13 15 7 8 1021.9 1021.8 0.0
 
Date/Time
EST
Temp
°C
App
Temp
°C
Dew
Point
°C
Rel
Hum
%
Delta-T
°C
Wind Press
QNH
hPa
Press
MSL
hPa
Rain since
9am
mm
Dir  Spd
km/h
Gust
km/h
Spd
kts
Gust
kts
28/11:30pm 11.8 10.3 10.4 91 0.7 SSW 9 13 5 7 1022.0 1021.9 0.0
28/11:00pm 11.9 9.6 10.5 91 0.7 SSW 13 15 7 8 1021.9 1021.8 0.0
28/10:30pm 12.8 11.0 10.7 87 1.1 S 11 13 6 7 1021.9 1021.8 0.0
28/10:00pm 13.4 11.4 11.5 88 1.0 S 13 17 7 9 1021.9 1021.8 0.0
28/09:30pm 12.7 10.6 11.1 90 0.8 SSW 13 15 7 8 1022.2 1022.1 0.0
28/09:00pm 12.4 11.0 11.0 91 0.7 SSW 9 9 5 5 1022.2 1022.1 0.0
28/08:30pm 12.8 11.3 10.5 86 1.2 SSW 9 11 5 6 1022.3 1022.2 0.0
28/08:00pm 14.1 13.4 12.0 87 1.1 SSW 7 9 4 5 1022.1 1022.0 0.0
28/07:30pm 14.4 13.7 12.1 86 1.2 SSW 7 9 4 5 1021.7 1021.6 0.0
28/07:00pm 15.4 15.0 12.3 82 1.7 SE 6 9 3 5 1021.5 1021.4 0.0
28/06:30pm 16.0 14.7 12.4 79 2.0 ESE 11 13 6 7 1021.1 1021.0 0.0
28/06:00pm 16.9 15.1 12.2 74 2.6 SE 13 20 7 11 1020.8 1020.7 0.0
28/05:30pm 18.7 16.3 12.5 67 3.5 ESE 17 22 9 12 1020.7 1020.6 0.0
28/05:00pm 19.9 17.1 11.4 58 4.7 ESE 17 24 9 13 1020.5 1020.4 0.0
28/04:30pm 20.4 16.8 10.5 53 5.4 ESE 20 30 11 16 1020.4 1020.3 0.0

Other Formats:

Comma delimited format used in spreadsheet applications
http://www.bom.gov.au/fwo/IDQ60801/IDQ60801.94365.axf

JavaScript Object Notation format (JSON) in row-major order
http://www.bom.gov.au/fwo/IDQ60801/IDQ60801.94365.json